Main page
METAR-TAF:

METAR-TAF

Airports :

Glasgow Airport

Glasgow, Montana, United States

latitude: 48-12-50N, longitude: 106-37-17W, elevation: 2293 ft

Current weather observation

The report was made 40 minutes ago, at 05:53 UTC
Wind 12 mph from the East/Southeast
Temperature 70°F
Humidity 60%
Pressure 30.08 in. Hg
Visibility: 10 miles
Clear sky

METAR: KGGW 300553Z AUTO 11010KT 10SM CLR 21/13 A3008 RMK AO2 SLP174 T02110133 10289 20211 53006

Time: 00:33 (06:33 UTC)

Forecast

The report was made 1 hour and 13 minutes ago, at 05:20 UTC
Forecast valid from 30 at 06 UTC to 31 at 06 UTC
Wind 7 mph from variable directions
Visibility: 6 miles
Few clouds at a height of 10000 ft
From 30 at 1800 UTC
Wind 12 mph from the North/Northeast
Visibility: 6 miles
Scattered clouds at a height of 9000 ft
haze
From 31 at 0000 UTC
Wind 9 mph from the East/Northeast
Visibility: 6 miles
Few clouds at a height of 12000 ft

TAF: KGGW 300520Z 3006/3106 VRB06KT P6SM FEW100 FM301800 02010KT 6SM HZ SCT090 FM310000 06008KT P6SM FEW120

Weather observations and forecasts of more than 4000 airports (METAR and TAF reports).

The available stations are represented by yellow and red dots on the map.

Hover mouse over dot to see the name of the station.

Then click to see weather observations and forecasts.

To change the map : click on the green buttons with a black cross to zoom in, on the green button with a dash to zoom out, or on the green arrows for adjacent maps.


METAR-TAF: